Time;durP1;ratioP1;P1;durP2;ratioP2;P2;SDS_P1;SDS_P2;PMS_P1;PMS_P2;Temp;Humidity;BMP_temperature;BMP_pressure;BME280_temperature;BME280_humidity;BME280_pressure;Samples;Min_cycle;Max_cycle;Signal;HPM_P1;HPM_P2
2022/09/25 00:02:00;;;;;;;5.83;1.47;;;12.70;99.90;;;;;;5021064;28;20703;-52
2022/09/25 00:04:28;;;;;;;7.07;1.33;;;12.60;99.90;;;;;;5017199;28;20567;-54
2022/09/25 00:06:55;;;;;;;3.67;1.67;;;12.60;99.90;;;;;;5029291;28;20203;-53
2022/09/25 00:09:22;;;;;;;2.53;1.33;;;12.60;99.90;;;;;;5026719;28;20199;-54
2022/09/25 00:11:49;;;;;;;6.50;1.50;;;12.60;99.90;;;;;;5019709;28;20207;-53
2022/09/25 00:14:16;;;;;;;3.00;1.50;;;12.60;99.90;;;;;;5020995;28;20196;-54
2022/09/25 00:16:43;;;;;;;6.03;1.47;;;12.60;99.90;;;;;;5017521;28;20215;-53
2022/09/25 00:22:04;;;;;;;2.60;1.40;;;12.60;99.90;;;;;;5029189;28;20686;-52
2022/09/25 00:24:31;;;;;;;6.43;1.60;;;12.50;99.90;;;;;;5025752;28;20190;-51
2022/09/25 00:26:59;;;;;;;6.83;2.83;;;12.50;99.90;;;;;;5020643;28;20632;-53
2022/09/25 00:29:26;;;;;;;6.30;1.47;;;12.60;99.90;;;;;;5025437;28;20197;-53
2022/09/25 00:31:54;;;;;;;5.63;1.63;;;12.50;99.90;;;;;;5034580;28;20678;-53
2022/09/25 00:34:21;;;;;;;4.70;1.70;;;12.50;99.90;;;;;;5030952;28;20236;-53
2022/09/25 00:36:47;;;;;;;3.30;1.40;;;12.50;99.90;;;;;;5027119;28;20207;-53
2022/09/25 00:39:14;;;;;;;5.20;1.63;;;12.50;99.90;;;;;;5025041;28;20200;-52
2022/09/25 00:41:41;;;;;;;9.07;1.73;;;12.40;99.90;;;;;;5024011;28;20211;-54
2022/09/25 00:44:45;;;;;;;3.97;1.30;;;12.50;99.90;;;;;;5027381;28;20211;-53
2022/09/25 00:47:18;;;;;;;7.37;1.80;;;12.50;99.90;;;;;;5028603;28;20654;-53
2022/09/25 00:49:45;;;;;;;5.93;1.53;;;12.50;99.90;;;;;;5024918;28;20236;-53
2022/09/25 00:52:13;;;;;;;7.03;1.70;;;12.40;99.90;;;;;;5025976;28;20199;-52
2022/09/25 00:54:48;;;;;;;4.23;1.73;;;12.40;99.90;;;;;;5023918;28;20216;-55
2022/09/25 00:57:19;;;;;;;5.23;1.67;;;12.40;99.90;;;;;;5023662;28;20204;-54
2022/09/25 00:59:51;;;;;;;5.50;1.40;;;12.50;99.90;;;;;;5028322;28;20567;-53
2022/09/25 01:02:28;;;;;;;5.77;1.53;;;12.40;99.90;;;;;;5025339;28;20810;-53
2022/09/25 01:05:03;;;;;;;6.77;1.80;;;12.50;99.90;;;;;;5022961;28;20203;-54
2022/09/25 01:07:32;;;;;;;5.77;1.70;;;12.40;99.90;;;;;;5025478;28;22374;-54
2022/09/25 01:10:01;;;;;;;4.80;1.43;;;12.40;99.90;;;;;;5024106;28;20209;-55
2022/09/25 01:12:28;;;;;;;3.17;1.27;;;12.40;99.90;;;;;;5027436;28;20660;-53
2022/09/25 01:14:56;;;;;;;3.90;1.50;;;12.30;99.90;;;;;;5021707;28;20216;-53
2022/09/25 01:17:39;;;;;;;7.30;1.50;;;12.30;99.90;;;;;;5025631;28;20201;-53
2022/09/25 01:20:39;;;;;;;2.10;1.70;;;12.30;99.90;;;;;;5022741;28;20216;-54
2022/09/25 01:23:43;;;;;;;2.20;1.60;;;12.20;99.90;;;;;;5026630;28;20233;-55
2022/09/25 01:26:47;;;;;;;3.10;1.50;;;12.20;99.90;;;;;;5022365;28;20298;-54
2022/09/25 01:29:26;;;;;;;2.97;1.80;;;12.20;99.90;;;;;;5020675;28;20192;-54
2022/09/25 01:32:03;;;;;;;4.67;1.87;;;12.20;99.90;;;;;;5024777;28;20311;-53
2022/09/25 01:35:03;;;;;;;4.83;1.60;;;12.20;99.90;;;;;;5022566;28;20287;-53
2022/09/25 01:38:01;;;;;;;8.00;2.20;;;12.20;99.90;;;;;;5027548;28;20193;-54
2022/09/25 01:40:42;;;;;;;6.83;1.70;;;12.10;99.90;;;;;;5023558;28;20291;-53
2022/09/25 01:43:29;;;;;;;3.00;1.50;;;12.20;99.90;;;;;;5032613;28;20631;-53
2022/09/25 01:46:10;;;;;;;3.37;1.83;;;12.10;99.90;;;;;;5025165;28;20563;-54
2022/09/25 01:48:41;;;;;;;6.90;1.90;;;12.20;99.90;;;;;;5028061;28;20256;-53
2022/09/25 01:51:15;;;;;;;9.03;1.83;;;12.10;99.90;;;;;;5028076;28;20231;-54
2022/09/25 01:53:51;;;;;;;6.33;2.17;;;12.20;99.90;;;;;;5028725;28;20643;-54
2022/09/25 01:56:31;;;;;;;6.57;2.00;;;12.00;99.90;;;;;;5027579;28;20298;-53
2022/09/25 01:59:24;;;;;;;4.93;2.40;;;12.00;99.90;;;;;;5020919;28;20216;-53
2022/09/25 02:01:54;;;;;;;3.67;1.80;;;12.10;99.90;;;;;;5026063;28;20227;-53
2022/09/25 02:04:34;;;;;;;8.07;2.23;;;12.00;99.90;;;;;;5025819;28;20204;-53
2022/09/25 02:07:05;;;;;;;4.07;2.53;;;12.00;99.90;;;;;;5023229;28;20206;-53
2022/09/25 02:09:48;;;;;;;8.03;2.43;;;11.90;99.90;;;;;;5023766;28;20231;-54
2022/09/25 02:12:20;;;;;;;5.13;2.13;;;12.00;99.90;;;;;;5022043;28;20201;-53
2022/09/25 02:15:00;;;;;;;9.43;2.50;;;12.00;99.90;;;;;;5021940;28;20205;-53
2022/09/25 02:20:36;;;;;;;4.90;2.50;;;12.00;99.90;;;;;;5017940;28;20199;-53
2022/09/25 02:23:12;;;;;;;3.80;2.17;;;12.00;99.90;;;;;;5017779;28;20669;-55
2022/09/25 02:26:03;;;;;;;4.60;2.30;;;12.00;99.90;;;;;;5020272;28;20224;-54
2022/09/25 02:28:30;;;;;;;5.50;2.17;;;11.90;99.90;;;;;;5024339;28;20235;-54
2022/09/25 02:30:59;;;;;;;7.73;2.70;;;11.90;99.90;;;;;;5022253;28;20200;-55
2022/09/25 02:33:26;;;;;;;4.93;2.40;;;11.90;99.90;;;;;;5023464;28;20287;-54
2022/09/25 02:35:53;;;;;;;4.27;2.13;;;11.90;99.90;;;;;;5023657;28;20208;-54
2022/09/25 02:38:20;;;;;;;9.27;2.80;;;11.90;99.90;;;;;;5022123;28;20204;-54
2022/09/25 02:40:50;;;;;;;5.60;2.70;;;11.90;99.90;;;;;;5023387;28;20194;-54
2022/09/25 02:44:04;;;;;;;5.63;2.83;;;11.80;99.90;;;;;;5022970;28;20615;-54
2022/09/25 02:46:48;;;;;;;4.00;2.60;;;11.90;99.90;;;;;;5034929;28;20206;-53
2022/09/25 02:49:19;;;;;;;4.57;2.43;;;11.90;99.90;;;;;;5025878;28;20323;-53
2022/09/25 02:52:05;;;;;;;7.27;2.63;;;11.80;99.90;;;;;;5039977;28;20207;-52
2022/09/25 02:54:55;;;;;;;8.83;3.03;;;11.80;99.90;;;;;;5018344;28;20196;-52
2022/09/25 02:57:50;;;;;;;5.60;2.80;;;11.80;99.90;;;;;;5022846;28;20196;-52
2022/09/25 03:00:17;;;;;;;4.53;2.93;;;11.80;99.90;;;;;;5022479;28;20637;-53
2022/09/25 03:02:45;;;;;;;6.53;2.70;;;11.80;99.90;;;;;;5023078;28;20231;-52
2022/09/25 03:05:19;;;;;;;6.57;3.27;;;11.80;99.90;;;;;;5022712;28;20247;-53
2022/09/25 03:10:34;;;;;;;5.97;2.90;;;11.80;99.90;;;;;;5019638;28;20200;-53
2022/09/25 03:13:20;;;;;;;4.57;3.20;;;11.70;99.90;;;;;;5024672;28;20236;-52
2022/09/25 03:15:51;;;;;;;4.20;3.10;;;11.70;99.90;;;;;;5026112;28;20195;-53
2022/09/25 03:18:18;;;;;;;4.30;2.90;;;11.60;99.90;;;;;;5024634;28;20283;-53
2022/09/25 03:20:45;;;;;;;5.67;3.07;;;11.60;99.90;;;;;;5024317;28;20292;-53
2022/09/25 03:23:12;;;;;;;5.10;3.10;;;11.60;99.90;;;;;;5021960;28;20223;-55
2022/09/25 03:25:39;;;;;;;8.23;3.27;;;11.60;99.90;;;;;;5021861;28;20250;-54
2022/09/25 03:28:11;;;;;;;7.27;3.13;;;11.70;99.90;;;;;;5020886;28;20206;-53
2022/09/25 03:30:39;;;;;;;6.67;3.37;;;11.60;99.90;;;;;;5023036;28;20228;-54
2022/09/25 03:33:11;;;;;;;4.80;3.53;;;11.70;99.90;;;;;;5020204;28;20197;-55
2022/09/25 03:35:38;;;;;;;7.43;3.70;;;11.70;99.90;;;;;;5015938;28;20212;-54
2022/09/25 03:38:09;;;;;;;6.03;3.50;;;11.70;99.90;;;;;;5012292;28;20219;-53
2022/09/25 03:40:36;;;;;;;7.17;4.23;;;11.60;99.90;;;;;;5017134;28;20204;-54
2022/09/25 03:43:03;;;;;;;9.53;4.60;;;11.60;99.90;;;;;;5025186;28;20207;-54
2022/09/25 03:45:28;;;;;;;7.93;4.93;;;11.60;99.90;;;;;;5023742;28;20647;-54
2022/09/25 03:47:55;;;;;;;7.57;4.07;;;11.60;99.90;;;;;;5026288;28;20287;-54
2022/09/25 03:50:22;;;;;;;6.50;3.47;;;11.50;99.90;;;;;;5021085;28;20702;-54
2022/09/25 03:52:49;;;;;;;5.30;3.37;;;11.60;99.90;;;;;;5021858;28;20228;-53
2022/09/25 03:55:16;;;;;;;6.80;2.97;;;11.50;99.90;;;;;;5021449;28;20200;-53
2022/09/25 03:57:43;;;;;;;8.50;4.20;;;11.50;99.90;;;;;;5025049;28;20199;-54
2022/09/25 04:00:10;;;;;;;5.13;3.07;;;11.40;99.90;;;;;;5023200;28;20202;-53
2022/09/25 04:02:37;;;;;;;4.23;2.90;;;11.30;99.90;;;;;;5020418;28;20224;-54
2022/09/25 04:05:05;;;;;;;5.57;3.17;;;11.30;99.90;;;;;;5021874;28;20240;-54
2022/09/25 04:07:31;;;;;;;6.20;3.30;;;11.20;99.90;;;;;;5021823;28;20200;-54
2022/09/25 04:09:58;;;;;;;4.83;3.67;;;11.20;99.90;;;;;;5022489;28;20188;-54
2022/09/25 04:12:25;;;;;;;4.37;3.33;;;11.20;99.90;;;;;;5027527;28;20201;-54
2022/09/25 04:14:53;;;;;;;6.57;2.97;;;11.20;99.90;;;;;;5025685;28;20196;-53
2022/09/25 04:17:20;;;;;;;5.63;2.80;;;11.00;99.90;;;;;;5031171;28;20204;-55
2022/09/25 04:19:47;;;;;;;5.67;2.77;;;10.90;99.90;;;;;;5025570;28;20200;-54
2022/09/25 04:22:14;;;;;;;4.73;2.60;;;10.80;99.90;;;;;;5017021;28;20244;-54
2022/09/25 04:24:47;;;;;;;3.73;2.43;;;10.80;99.90;;;;;;5020323;28;20220;-53
2022/09/25 04:27:20;;;;;;;4.33;2.27;;;10.70;99.90;;;;;;5017170;28;20200;-53
2022/09/25 04:29:48;;;;;;;3.20;2.20;;;10.70;99.90;;;;;;5020412;28;20208;-54
2022/09/25 04:35:02;;;;;;;3.13;2.40;;;10.60;99.90;;;;;;5028052;28;20235;-55
2022/09/25 04:37:29;;;;;;;3.50;2.50;;;10.70;99.90;;;;;;5020366;28;20208;-54
2022/09/25 04:39:56;;;;;;;3.17;2.50;;;10.70;99.90;;;;;;5015901;28;20254;-54
2022/09/25 04:42:24;;;;;;;3.20;2.67;;;10.80;99.90;;;;;;5019072;28;20593;-54
2022/09/25 04:44:53;;;;;;;9.13;3.00;;;10.80;99.90;;;;;;5014400;28;20209;-54
2022/09/25 04:47:25;;;;;;;8.43;3.70;;;10.80;99.90;;;;;;5024753;28;20211;-54
2022/09/25 04:49:52;;;;;;;5.03;3.37;;;10.80;99.90;;;;;;5026268;28;20723;-53
2022/09/25 04:52:19;;;;;;;5.20;3.87;;;10.90;99.90;;;;;;5034769;28;20189;-54
2022/09/25 04:54:46;;;;;;;4.83;3.80;;;10.90;99.90;;;;;;5026173;28;20655;-53
2022/09/25 04:57:18;;;;;;;6.80;4.27;;;10.90;99.90;;;;;;5028025;28;20346;-53
2022/09/25 05:00:06;;;;;;;8.67;4.40;;;10.90;99.90;;;;;;5022578;28;20590;-54
2022/09/25 05:02:33;;;;;;;7.13;4.40;;;11.00;99.90;;;;;;5025236;28;20309;-53
2022/09/25 05:05:00;;;;;;;7.43;4.13;;;11.10;99.90;;;;;;5026986;28;20239;-54
2022/09/25 05:07:27;;;;;;;7.23;5.30;;;11.00;99.90;;;;;;5018530;28;20207;-55
2022/09/25 05:09:54;;;;;;;8.33;5.03;;;11.10;99.90;;;;;;5022046;28;20659;-53
2022/09/25 05:12:20;;;;;;;7.90;4.83;;;11.10;99.90;;;;;;5027821;28;20565;-54
2022/09/25 05:14:47;;;;;;;5.83;4.37;;;11.10;99.90;;;;;;5029686;28;20200;-53
2022/09/25 05:17:14;;;;;;;10.63;4.67;;;11.20;99.90;;;;;;5041090;28;20667;-53
2022/09/25 05:19:41;;;;;;;6.70;4.03;;;11.10;99.90;;;;;;5028905;28;20299;-54
2022/09/25 05:22:08;;;;;;;6.33;4.60;;;11.20;99.90;;;;;;5029053;28;20210;-54
2022/09/25 05:24:37;;;;;;;7.90;4.40;;;11.20;99.90;;;;;;5029504;28;20211;-54
2022/09/25 05:27:04;;;;;;;4.37;3.40;;;11.10;99.90;;;;;;5029809;28;20223;-54
2022/09/25 05:29:31;;;;;;;3.83;2.50;;;11.10;99.90;;;;;;5031229;28;20200;-54
2022/09/25 05:31:58;;;;;;;2.67;2.00;;;10.90;99.90;;;;;;5021623;28;20196;-53
2022/09/25 05:34:25;;;;;;;2.00;1.53;;;10.60;99.90;;;;;;5026504;28;20329;-54
2022/09/25 05:36:52;;;;;;;2.13;1.57;;;10.30;99.90;;;;;;5028820;28;20291;-53
2022/09/25 05:39:18;;;;;;;2.93;1.70;;;10.20;99.90;;;;;;5025124;28;20262;-53
2022/09/25 05:41:45;;;;;;;1.87;1.60;;;10.30;99.90;;;;;;5022668;28;20222;-52
2022/09/25 05:44:13;;;;;;;2.20;1.50;;;10.30;99.90;;;;;;5020909;28;20690;-53
2022/09/25 05:46:41;;;;;;;4.97;2.10;;;10.40;99.90;;;;;;5018371;28;20222;-53
2022/09/25 05:49:08;;;;;;;6.53;3.30;;;10.40;99.90;;;;;;5024034;28;20254;-55
2022/09/25 05:51:35;;;;;;;5.23;3.40;;;10.50;99.90;;;;;;5024770;28;21066;-55
2022/09/25 05:54:02;;;;;;;5.17;2.87;;;10.50;99.90;;;;;;5020630;28;20217;-54
2022/09/25 05:56:29;;;;;;;5.33;3.57;;;10.60;99.90;;;;;;5022844;28;20211;-54
2022/09/25 05:58:57;;;;;;;4.50;3.83;;;10.70;99.90;;;;;;5022431;28;20297;-53
2022/09/25 06:01:24;;;;;;;6.63;3.80;;;10.80;99.90;;;;;;5016245;28;20334;-53
2022/09/25 06:03:51;;;;;;;8.33;4.00;;;10.80;99.90;;;;;;4658280;28;10000548;-54
2022/09/25 06:06:18;;;;;;;6.10;4.20;;;10.90;99.90;;;;;;5011733;28;20205;-54
2022/09/25 06:08:53;;;;;;;6.53;4.00;;;10.90;99.90;;;;;;5022944;28;20208;-54
2022/09/25 06:11:21;;;;;;;4.03;3.17;;;11.00;99.90;;;;;;5025883;28;20203;-54
2022/09/25 06:13:49;;;;;;;3.83;2.63;;;10.90;99.90;;;;;;5022964;28;20217;-54
2022/09/25 06:16:20;;;;;;;5.07;2.40;;;10.90;99.90;;;;;;5024611;28;20239;-53
2022/09/25 06:18:47;;;;;;;7.13;2.50;;;10.80;99.90;;;;;;5015706;28;20288;-53
2022/09/25 06:21:14;;;;;;;3.07;2.20;;;10.80;99.90;;;;;;5020731;28;20267;-54
2022/09/25 06:23:43;;;;;;;2.40;1.90;;;10.70;99.90;;;;;;5029812;28;20215;-54
2022/09/25 06:26:11;;;;;;;3.37;1.80;;;10.70;99.90;;;;;;5008730;28;20231;-53
2022/09/25 06:28:38;;;;;;;2.80;1.87;;;10.80;99.90;;;;;;5010388;28;20243;-59
2022/09/25 06:31:05;;;;;;;2.57;1.67;;;10.80;99.90;;;;;;5009875;28;20733;-54
2022/09/25 06:33:32;;;;;;;2.10;1.80;;;10.80;99.90;;;;;;5013370;28;20247;-54
2022/09/25 06:35:59;;;;;;;4.13;2.07;;;10.80;99.90;;;;;;5013445;28;20196;-53
2022/09/25 06:38:26;;;;;;;2.70;1.83;;;10.90;99.90;;;;;;5019395;28;20291;-53
2022/09/25 06:40:53;;;;;;;3.07;2.03;;;11.00;99.90;;;;;;5020906;28;20240;-54
2022/09/25 06:43:26;;;;;;;4.83;3.00;;;11.00;99.90;;;;;;5019885;28;20261;-54
2022/09/25 06:45:52;;;;;;;5.60;4.43;;;11.00;99.90;;;;;;5019348;28;20861;-54
2022/09/25 06:48:20;;;;;;;5.87;3.90;;;11.20;99.90;;;;;;5018725;28;20325;-53
2022/09/25 06:50:55;;;;;;;6.23;3.93;;;11.30;99.90;;;;;;5017004;28;20300;-56
2022/09/25 06:53:24;;;;;;;8.40;3.70;;;11.40;99.90;;;;;;5015405;28;20233;-55
2022/09/25 06:55:52;;;;;;;6.03;4.33;;;11.50;99.90;;;;;;5016789;28;20258;-54
2022/09/25 06:58:22;;;;;;;7.13;4.27;;;11.70;99.90;;;;;;5018034;28;20237;-56
2022/09/25 07:00:51;;;;;;;6.57;4.30;;;11.70;99.90;;;;;;5023221;28;20203;-55
2022/09/25 07:06:06;;;;;;;6.30;4.10;;;11.90;99.90;;;;;;5013533;28;20200;-52
2022/09/25 07:08:34;;;;;;;9.50;4.47;;;11.90;99.90;;;;;;5017553;28;20205;-53
2022/09/25 07:11:01;;;;;;;4.57;4.03;;;12.00;99.90;;;;;;5015050;28;20203;-55
2022/09/25 07:13:30;;;;;;;8.90;3.90;;;12.10;99.90;;;;;;5022981;28;20303;-54
2022/09/25 07:15:59;;;;;;;9.77;4.17;;;12.20;99.90;;;;;;5018490;28;20260;-54
2022/09/25 07:18:27;;;;;;;4.43;3.47;;;12.30;99.90;;;;;;5009228;28;20204;-55
2022/09/25 07:21:02;;;;;;;6.70;3.90;;;12.40;99.90;;;;;;5016470;28;20586;-54
2022/09/25 07:23:30;;;;;;;6.80;3.63;;;12.40;99.90;;;;;;5017808;28;20198;-53
2022/09/25 07:26:04;;;;;;;7.10;3.80;;;12.50;99.90;;;;;;5016900;28;20198;-55
2022/09/25 07:28:31;;;;;;;5.17;3.77;;;12.60;99.90;;;;;;5014477;28;20654;-52
2022/09/25 07:30:58;;;;;;;7.07;4.37;;;12.70;99.90;;;;;;5013814;28;20262;-54
2022/09/25 07:33:25;;;;;;;6.00;4.13;;;12.80;99.90;;;;;;5016074;28;20559;-56
2022/09/25 07:35:52;;;;;;;7.13;3.90;;;12.90;99.90;;;;;;5015586;28;20601;-53
2022/09/25 07:38:19;;;;;;;5.27;3.70;;;13.00;99.90;;;;;;5014132;28;20228;-53
2022/09/25 07:40:45;;;;;;;8.00;4.13;;;13.00;99.90;;;;;;5027390;28;20278;-54
2022/09/25 07:43:12;;;;;;;7.13;3.90;;;13.10;99.90;;;;;;5017209;28;20201;-54
2022/09/25 07:45:40;;;;;;;5.83;3.30;;;13.30;99.90;;;;;;5019227;28;20311;-54
2022/09/25 07:48:07;;;;;;;7.80;3.70;;;13.60;99.90;;;;;;5029938;28;20711;-55
2022/09/25 07:50:34;;;;;;;4.70;3.33;;;13.60;99.90;;;;;;5008618;28;20232;-53
2022/09/25 07:53:01;;;;;;;4.93;3.10;;;13.80;99.90;;;;;;5017638;28;20485;-54
2022/09/25 07:55:28;;;;;;;6.23;3.30;;;13.90;99.90;;;;;;5014624;28;20197;-54
2022/09/25 07:57:56;;;;;;;5.10;3.00;;;14.00;99.90;;;;;;5018815;28;20712;-53
2022/09/25 08:00:23;;;;;;;4.63;2.50;;;14.10;99.90;;;;;;5015971;28;20220;-54
2022/09/25 08:02:57;;;;;;;6.20;3.00;;;14.30;99.90;;;;;;5017047;28;20707;-53
2022/09/25 08:05:25;;;;;;;4.93;2.47;;;14.50;99.90;;;;;;5012106;28;20247;-52
2022/09/25 08:07:53;;;;;;;4.87;2.40;;;14.60;99.90;;;;;;5014061;28;20203;-53
2022/09/25 08:10:21;;;;;;;5.33;2.23;;;14.90;99.90;;;;;;5014506;28;20201;-53
2022/09/25 08:12:48;;;;;;;3.77;2.00;;;15.10;99.90;;;;;;5015737;28;20286;-53
2022/09/25 08:15:15;;;;;;;5.37;1.97;;;14.90;99.90;;;;;;5013433;28;20211;-53
2022/09/25 08:17:42;;;;;;;5.80;2.53;;;15.40;99.90;;;;;;5009231;28;20206;-53
2022/09/25 08:20:09;;;;;;;4.47;1.70;;;15.80;99.90;;;;;;5013153;28;20205;-53
2022/09/25 08:22:36;;;;;;;3.37;1.67;;;15.70;99.90;;;;;;5021418;28;20216;-54
2022/09/25 08:25:03;;;;;;;3.93;1.40;;;15.80;99.90;;;;;;5020033;28;20213;-53
2022/09/25 08:27:31;;;;;;;2.23;1.40;;;16.00;99.90;;;;;;5025561;28;20294;-54
2022/09/25 08:29:57;;;;;;;2.60;1.50;;;16.30;99.90;;;;;;5021242;28;20198;-53
2022/09/25 08:32:24;;;;;;;3.57;1.37;;;16.70;99.90;;;;;;5014988;28;20191;-53
2022/09/25 08:34:51;;;;;;;2.60;1.20;;;16.30;99.90;;;;;;5017433;28;20201;-53
2022/09/25 08:37:19;;;;;;;3.60;1.20;;;16.30;99.90;;;;;;5012061;28;20845;-53
2022/09/25 08:39:46;;;;;;;3.27;1.40;;;16.30;99.90;;;;;;5016057;28;20429;-53
2022/09/25 08:42:20;;;;;;;4.23;1.80;;;16.60;99.90;;;;;;5014987;28;20199;-54
2022/09/25 08:50:36;;;;;;;5.17;1.77;;;16.80;99.90;;;;;;5017258;28;20207;-54
2022/09/25 08:53:24;;;;;;;4.17;1.40;;;17.40;99.90;;;;;;5015636;28;20191;-53
2022/09/25 08:58:41;;;;;;;5.00;2.27;;;16.60;99.90;;;;;;5015604;28;20286;-54
2022/09/25 09:01:18;;;;;;;4.17;1.00;;;16.70;99.90;;;;;;5015476;28;20601;-53
2022/09/25 09:03:49;;;;;;;3.83;1.07;;;17.30;99.90;;;;;;5016526;28;20208;-52
2022/09/25 09:06:17;;;;;;;5.77;1.10;;;17.60;99.90;;;;;;5005754;28;20196;-53
2022/09/25 09:08:53;;;;;;;4.10;1.30;;;17.30;99.90;;;;;;5018635;28;20205;-53
2022/09/25 09:11:40;;;;;;;4.30;1.40;;;17.00;99.90;;;;;;5014135;28;20210;-52
2022/09/25 09:14:17;;;;;;;3.37;0.70;;;16.30;99.90;;;;;;5017380;28;20286;-56
2022/09/25 09:17:04;;;;;;;5.90;0.90;;;16.20;99.90;;;;;;5021662;28;20235;-53
2022/09/25 09:19:32;;;;;;;2.53;1.03;;;16.60;99.90;;;;;;5019008;28;20264;-53
2022/09/25 09:22:08;;;;;;;5.40;0.93;;;16.70;99.90;;;;;;5011258;28;20207;-54
2022/09/25 09:24:44;;;;;;;3.27;0.60;;;16.70;99.90;;;;;;5023848;28;20210;-54
2022/09/25 09:27:23;;;;;;;4.17;0.60;;;16.90;99.90;;;;;;5021157;28;20643;-54
2022/09/25 09:30:06;;;;;;;5.23;0.93;;;16.90;99.90;;;;;;5017788;28;20202;-53
2022/09/25 09:33:11;;;;;;;3.90;0.57;;;16.70;99.90;;;;;;5022317;28;20209;-53
2022/09/25 09:36:05;;;;;;;1.87;0.50;;;16.70;99.90;;;;;;5019247;28;20677;-53
2022/09/25 09:38:31;;;;;;;3.13;0.97;;;16.80;99.90;;;;;;5016651;28;21689;-53
2022/09/25 09:41:28;;;;;;;3.17;0.60;;;16.90;99.90;;;;;;5019105;28;20198;-52
2022/09/25 09:44:11;;;;;;;3.07;0.70;;;16.60;99.90;;;;;;5013636;28;20234;-53
2022/09/25 09:46:44;;;;;;;4.60;0.60;;;16.80;99.90;;;;;;5020381;28;20195;-52
2022/09/25 09:49:28;;;;;;;2.93;0.70;;;17.00;99.90;;;;;;5009369;28;20243;-53
2022/09/25 09:52:21;;;;;;;4.50;1.07;;;16.70;99.90;;;;;;5010318;28;20284;-53
2022/09/25 09:55:12;;;;;;;2.30;0.80;;;16.90;99.90;;;;;;5015781;28;20796;-53
2022/09/25 09:57:55;;;;;;;1.80;0.60;;;16.70;99.90;;;;;;5011694;28;20230;-53
2022/09/25 10:00:23;;;;;;;0.90;0.57;;;16.30;99.90;;;;;;5014425;28;20208;-53
2022/09/25 10:03:02;;;;;;;2.10;0.53;;;16.20;99.90;;;;;;5013458;28;20670;-52
2022/09/25 10:05:42;;;;;;;4.10;0.93;;;16.10;99.90;;;;;;5022584;28;20288;-53
2022/09/25 10:08:10;;;;;;;3.73;0.90;;;16.30;99.90;;;;;;5019819;28;20210;-52
2022/09/25 10:10:39;;;;;;;1.50;0.50;;;16.50;99.90;;;;;;5012723;28;20195;-53
2022/09/25 10:13:20;;;;;;;3.80;0.83;;;16.50;99.90;;;;;;5014301;28;20203;-52
2022/09/25 10:15:53;;;;;;;3.23;0.70;;;16.50;99.90;;;;;;5013009;28;20202;-54
2022/09/25 10:18:23;;;;;;;1.73;0.63;;;16.50;99.90;;;;;;5014993;28;20260;-53
2022/09/25 10:21:30;;;;;;;2.13;0.53;;;16.70;99.90;;;;;;5016455;28;20216;-53
2022/09/25 10:23:58;;;;;;;1.37;0.60;;;16.70;99.90;;;;;;5009975;28;20212;-53
2022/09/25 10:26:36;;;;;;;4.00;0.70;;;16.80;99.90;;;;;;5003871;28;20204;-53
2022/09/25 10:29:35;;;;;;;3.17;0.43;;;16.90;99.90;;;;;;5012537;28;20283;-52
2022/09/25 10:32:03;;;;;;;2.07;0.50;;;16.80;99.90;;;;;;5013893;28;20214;-52
2022/09/25 10:34:30;;;;;;;2.47;0.60;;;16.60;99.90;;;;;;5016083;28;20710;-52
2022/09/25 10:37:11;;;;;;;1.63;0.57;;;16.70;99.90;;;;;;5015709;28;20599;-52
2022/09/25 10:39:39;;;;;;;5.20;0.70;;;16.60;99.90;;;;;;5015073;28;20214;-53
2022/09/25 10:42:38;;;;;;;1.80;0.67;;;16.90;99.90;;;;;;5010284;28;20206;-52
2022/09/25 10:45:21;;;;;;;1.27;0.40;;;17.00;99.90;;;;;;5013792;28;20221;-52
2022/09/25 10:50:38;;;;;;;2.27;0.77;;;17.10;99.90;;;;;;5011350;28;20202;-52
2022/09/25 10:53:06;;;;;;;3.77;0.33;;;17.00;99.90;;;;;;5016113;28;20253;-52
2022/09/25 10:55:36;;;;;;;2.00;0.60;;;16.60;99.90;;;;;;5013410;28;20223;-55
2022/09/25 10:58:05;;;;;;;1.97;0.40;;;16.30;99.90;;;;;;5012039;28;20209;-53
2022/09/25 11:00:57;;;;;;;2.87;0.70;;;16.30;99.90;;;;;;5015221;28;20609;-53
2022/09/25 11:03:27;;;;;;;1.10;0.50;;;16.50;99.90;;;;;;5011040;28;20693;-52
2022/09/25 11:05:58;;;;;;;2.83;0.60;;;16.60;99.90;;;;;;5017972;28;20768;-52
2022/09/25 11:08:29;;;;;;;1.77;0.60;;;16.90;99.90;;;;;;5008789;28;20335;-52
2022/09/25 11:10:59;;;;;;;2.07;0.50;;;17.10;99.90;;;;;;5009294;28;20538;-53
2022/09/25 11:13:28;;;;;;;4.10;0.60;;;17.40;99.90;;;;;;5017667;28;20637;-53
2022/09/25 11:15:59;;;;;;;1.70;0.60;;;17.30;99.90;;;;;;5016360;28;20205;-53
2022/09/25 11:18:54;;;;;;;2.20;0.60;;;17.40;99.90;;;;;;5013204;28;20219;-53
2022/09/25 11:21:36;;;;;;;1.23;0.50;;;17.50;99.90;;;;;;5017254;28;20211;-54
2022/09/25 11:24:12;;;;;;;2.27;0.53;;;17.70;99.90;;;;;;5012144;28;20204;-52
2022/09/25 11:26:51;;;;;;;1.30;0.40;;;17.80;99.90;;;;;;5013257;28;20208;-52
2022/09/25 11:30:01;;;;;;;1.87;0.50;;;17.80;99.90;;;;;;5014632;28;20663;-53
2022/09/25 11:32:43;;;;;;;2.83;0.40;;;17.80;99.90;;;;;;5020028;28;20197;-53
2022/09/25 11:35:46;;;;;;;2.23;0.50;;;17.90;99.90;;;;;;5021056;28;20847;-53
2022/09/25 11:41:40;;;;;;;1.43;0.47;;;18.20;99.90;;;;;;5019443;28;20295;-52
2022/09/25 11:44:10;;;;;;;2.07;0.60;;;18.20;99.90;;;;;;5018947;28;20632;-52
2022/09/25 11:47:14;;;;;;;3.63;0.60;;;17.70;99.90;;;;;;5019066;28;20566;-53
2022/09/25 11:49:41;;;;;;;6.07;0.93;;;17.80;99.90;;;;;;5022350;28;20780;-52
2022/09/25 11:52:32;;;;;;;1.37;0.73;;;17.50;99.90;;;;;;5023671;28;20200;-50
2022/09/25 11:55:22;;;;;;;1.67;0.63;;;17.10;99.90;;;;;;5020921;28;20199;-52
2022/09/25 11:58:10;;;;;;;0.73;0.50;;;17.00;99.90;;;;;;5049520;28;20217;-52
2022/09/25 12:01:02;;;;;;;3.53;0.63;;;16.90;99.90;;;;;;5033382;28;20219;-53
2022/09/25 12:03:44;;;;;;;2.27;1.10;;;16.80;99.90;;;;;;5026132;28;20196;-51
2022/09/25 12:06:53;;;;;;;1.77;0.80;;;17.10;99.90;;;;;;5027405;28;20216;-52
2022/09/25 12:09:47;;;;;;;2.50;0.97;;;17.20;99.90;;;;;;5027594;28;20193;-52
2022/09/25 12:12:32;;;;;;;4.47;0.80;;;17.20;99.90;;;;;;5024735;28;20207;-52
2022/09/25 12:15:20;;;;;;;4.50;0.70;;;17.40;99.90;;;;;;5027089;28;20199;-52
2022/09/25 12:18:18;;;;;;;2.67;0.60;;;18.00;99.90;;;;;;5029765;28;20648;-52
2022/09/25 12:20:49;;;;;;;4.20;1.37;;;17.50;99.90;;;;;;5029148;28;20204;-52
2022/09/25 12:23:42;;;;;;;2.90;0.70;;;17.80;99.90;;;;;;5017328;28;20232;-52
2022/09/25 12:26:33;;;;;;;1.50;0.50;;;18.60;99.90;;;;;;5026567;28;20595;-52
2022/09/25 12:29:05;;;;;;;6.47;0.90;;;19.20;99.90;;;;;;5030198;28;20211;-52
2022/09/25 12:32:03;;;;;;;2.00;0.60;;;19.60;99.90;;;;;;5029951;28;20197;-53
2022/09/25 12:34:56;;;;;;;2.63;0.87;;;19.60;99.90;;;;;;5025673;28;20302;-53
2022/09/25 12:37:47;;;;;;;2.43;0.70;;;20.20;99.90;;;;;;5028972;28;20221;-52
2022/09/25 12:40:26;;;;;;;1.63;0.40;;;20.40;99.90;;;;;;5023826;28;20201;-53
2022/09/25 12:43:03;;;;;;;1.47;0.50;;;20.20;99.90;;;;;;5028662;28;20297;-53
2022/09/25 12:45:57;;;;;;;2.33;0.33;;;20.50;99.90;;;;;;5023038;28;20306;-52
2022/09/25 12:49:01;;;;;;;1.20;0.70;;;20.40;99.90;;;;;;5027251;28;20239;-53
2022/09/25 12:51:39;;;;;;;3.27;0.70;;;20.60;99.90;;;;;;5025771;28;20560;-53
2022/09/25 12:54:22;;;;;;;2.60;0.80;;;20.60;99.90;;;;;;5029418;28;20200;-53
2022/09/25 12:57:21;;;;;;;0.80;0.50;;;20.40;99.90;;;;;;5027683;28;20196;-52
2022/09/25 12:59:51;;;;;;;3.80;0.60;;;20.60;99.90;;;;;;5026744;28;20212;-52
2022/09/25 13:02:44;;;;;;;3.73;0.67;;;20.80;99.90;;;;;;5030372;28;20229;-52
2022/09/25 13:05:29;;;;;;;1.50;0.60;;;20.80;99.90;;;;;;5023925;28;20295;-52
2022/09/25 13:08:06;;;;;;;2.00;0.50;;;21.00;99.90;;;;;;5019994;28;20193;-53
2022/09/25 13:10:52;;;;;;;1.50;0.57;;;21.10;99.90;;;;;;5025609;28;20201;-53
2022/09/25 13:13:26;;;;;;;0.70;0.40;;;21.30;99.90;;;;;;5029556;28;20234;-53
2022/09/25 13:15:58;;;;;;;2.67;0.77;;;21.10;99.90;;;;;;5025369;28;20192;-53
2022/09/25 13:18:27;;;;;;;1.37;0.30;;;21.10;99.90;;;;;;5027657;28;20937;-53
2022/09/25 13:20:55;;;;;;;1.87;0.40;;;21.10;99.90;;;;;;5025149;28;20540;-52
2022/09/25 13:23:25;;;;;;;2.80;0.40;;;21.40;99.90;;;;;;5021472;28;20464;-53
2022/09/25 13:25:59;;;;;;;2.53;0.50;;;21.10;99.90;;;;;;5025798;28;20219;-53
2022/09/25 13:28:39;;;;;;;1.87;0.50;;;20.90;99.90;;;;;;5027690;28;20228;-53
2022/09/25 13:31:11;;;;;;;4.00;0.77;;;20.70;99.90;;;;;;5025650;28;20197;-52
2022/09/25 13:33:52;;;;;;;2.50;0.50;;;21.00;99.90;;;;;;5022805;28;20363;-52
2022/09/25 13:36:22;;;;;;;2.10;0.50;;;20.40;99.90;;;;;;5025239;28;20196;-53
2022/09/25 13:42:01;;;;;;;1.47;0.40;;;19.60;99.90;;;;;;5024918;28;20291;-53
2022/09/25 13:44:43;;;;;;;1.33;0.40;;;19.00;99.90;;;;;;5024894;28;20207;-53
2022/09/25 13:47:32;;;;;;;2.50;0.50;;;19.60;99.90;;;;;;5024911;28;20216;-52
2022/09/25 13:50:11;;;;;;;0.73;0.30;;;20.20;99.90;;;;;;5020510;28;20312;-56
2022/09/25 13:52:37;;;;;;;2.10;0.70;;;20.40;99.90;;;;;;5021504;28;20199;-53
2022/09/25 13:55:14;;;;;;;2.17;0.40;;;20.50;99.90;;;;;;5021994;28;20568;-53